Time;durP1;ratioP1;P1;durP2;ratioP2;P2;SDS_P1;SDS_P2;PMS_P1;PMS_P2;Temp;Humidity;BMP_temperature;BMP_pressure;BME280_temperature;BME280_humidity;BME280_pressure;Samples;Min_cycle;Max_cycle;Signal;HPM_P1;HPM_P2
2022/09/27 00:00:11;;;;;;;3.63;0.53;;;;;;;;;;4975062;28;20200;-74
2022/09/27 00:02:36;;;;;;;3.10;0.60;;;;;;;;;;4957118;28;20972;-74
2022/09/27 00:05:02;;;;;;;3.97;0.70;;;;;;;;;;4966725;28;20208;-74
2022/09/27 00:07:27;;;;;;;4.07;0.60;;;;;;;;;;4965054;28;20664;-73
2022/09/27 00:09:52;;;;;;;3.50;1.10;;;;;;;;;;4979138;28;20195;-74
2022/09/27 00:12:17;;;;;;;2.03;0.60;;;;;;;;;;4974142;28;20207;-75
2022/09/27 00:14:42;;;;;;;2.33;0.50;;;;;;;;;;4960346;28;20311;-74
2022/09/27 00:17:08;;;;;;;8.83;1.97;;;;;;;;;;4951329;28;21325;-74
2022/09/27 00:19:33;;;;;;;1.67;0.67;;;;;;;;;;4961518;28;20670;-74
2022/09/27 00:22:00;;;;;;;3.93;0.60;;;;;;;;;;4962232;28;20192;-75
2022/09/27 00:24:25;;;;;;;4.33;0.73;;;;;;;;;;4949985;28;20560;-74
2022/09/27 00:26:51;;;;;;;6.93;1.60;;;;;;;;;;4945177;28;20216;-75
2022/09/27 00:29:17;;;;;;;3.00;0.47;;;;;;;;;;4945644;28;20227;-73
2022/09/27 00:31:42;;;;;;;2.70;0.50;;;;;;;;;;4947862;28;20212;-74
2022/09/27 00:34:10;;;;;;;3.03;0.33;;;;;;;;;;4955326;28;20543;-74
2022/09/27 00:36:35;;;;;;;2.10;0.50;;;;;;;;;;4962474;28;20210;-73
2022/09/27 00:39:01;;;;;;;2.63;0.40;;;;;;;;;;4949254;28;20184;-73
2022/09/27 00:41:27;;;;;;;3.73;0.70;;;;;;;;;;4951773;28;20673;-73
2022/09/27 00:43:57;;;;;;;1.23;0.43;;;;;;;;;;4952244;28;20566;-73
2022/09/27 00:46:28;;;;;;;1.80;0.40;;;;;;;;;;4950316;28;20195;-73
2022/09/27 00:49:12;;;;;;;2.73;0.53;;;;;;;;;;4954346;28;20177;-73
2022/09/27 00:51:37;;;;;;;5.13;2.10;;;;;;;;;;4969440;28;20211;-73
2022/09/27 00:54:04;;;;;;;2.20;0.70;;;;;;;;;;4970717;28;20548;-73
2022/09/27 00:56:30;;;;;;;2.50;0.67;;;;;;;;;;4955204;28;20184;-72
2022/09/27 00:59:01;;;;;;;1.63;0.50;;;;;;;;;;4976082;28;20713;-73
2022/09/27 01:01:29;;;;;;;2.93;0.70;;;;;;;;;;4972372;28;20184;-73
2022/09/27 01:04:06;;;;;;;3.10;0.60;;;;;;;;;;4982823;28;20562;-74
2022/09/27 01:06:32;;;;;;;3.03;0.60;;;;;;;;;;4978067;28;20180;-74
2022/09/27 01:08:57;;;;;;;5.60;0.70;;;;;;;;;;4976335;28;20179;-71
2022/09/27 01:11:37;;;;;;;5.50;1.53;;;;;;;;;;4972137;28;20208;-73
2022/09/27 01:14:21;;;;;;;1.67;0.60;;;;;;;;;;4972876;28;20187;-74
2022/09/27 01:17:05;;;;;;;5.50;0.70;;;;;;;;;;4965070;28;20176;-74
2022/09/27 01:19:36;;;;;;;2.07;0.87;;;;;;;;;;4968923;28;20212;-75
2022/09/27 01:22:14;;;;;;;1.77;0.57;;;;;;;;;;4974587;28;20716;-74
2022/09/27 01:24:42;;;;;;;2.83;0.70;;;;;;;;;;4980435;28;20333;-74
2022/09/27 01:27:30;;;;;;;1.93;0.50;;;;;;;;;;4973309;28;20187;-74
2022/09/27 01:30:13;;;;;;;0.80;0.60;;;;;;;;;;4960023;28;20295;-74
2022/09/27 01:33:01;;;;;;;1.90;0.60;;;;;;;;;;4983929;28;20218;-73
2022/09/27 01:35:39;;;;;;;2.00;0.73;;;;;;;;;;4972759;28;20192;-73
2022/09/27 01:38:04;;;;;;;5.03;0.70;;;;;;;;;;4947494;28;20187;-73
2022/09/27 01:40:39;;;;;;;6.25;0.80;;;;;;;;;;4970506;28;20209;-74
2022/09/27 01:43:10;;;;;;;3.47;0.97;;;;;;;;;;4972077;28;20207;-74
2022/09/27 01:45:37;;;;;;;2.67;0.57;;;;;;;;;;4970238;28;20176;-73
2022/09/27 01:48:29;;;;;;;2.93;0.87;;;;;;;;;;4971405;28;20179;-73
2022/09/27 01:50:58;;;;;;;3.77;0.77;;;;;;;;;;4968391;28;20223;-73
2022/09/27 01:53:32;;;;;;;2.13;0.90;;;;;;;;;;4981258;28;20230;-73
2022/09/27 01:55:59;;;;;;;4.50;0.73;;;;;;;;;;4971787;28;20630;-73
2022/09/27 01:58:33;;;;;;;3.67;0.83;;;;;;;;;;4970023;28;20708;-74
2022/09/27 02:00:59;;;;;;;5.87;1.80;;;;;;;;;;4955445;28;20199;-72
2022/09/27 02:03:35;;;;;;;1.50;0.70;;;;;;;;;;4971166;28;20212;-73
2022/09/27 02:06:02;;;;;;;2.83;1.03;;;;;;;;;;4971023;28;20611;-73
2022/09/27 02:08:35;;;;;;;1.33;1.03;;;;;;;;;;4981660;28;20210;-74
2022/09/27 02:11:02;;;;;;;3.13;1.00;;;;;;;;;;4971284;28;20208;-73
2022/09/27 02:13:36;;;;;;;3.90;0.90;;;;;;;;;;4968923;28;20236;-73
2022/09/27 02:16:08;;;;;;;3.50;0.67;;;;;;;;;;4968197;28;20258;-73
2022/09/27 02:18:43;;;;;;;3.00;0.60;;;;;;;;;;4975737;28;20172;-73
2022/09/27 02:21:10;;;;;;;3.43;0.77;;;;;;;;;;4969760;28;20282;-74
2022/09/27 02:23:40;;;;;;;10.17;1.83;;;;;;;;;;4970479;28;20662;-73
2022/09/27 02:26:05;;;;;;;6.37;1.07;;;;;;;;;;4973459;28;20685;-72
2022/09/27 02:29:01;;;;;;;2.30;0.50;;;;;;;;;;4976416;28;20188;-72
2022/09/27 02:31:26;;;;;;;3.43;0.60;;;;;;;;;;4960234;28;20283;-73
2022/09/27 02:33:58;;;;;;;3.60;0.70;;;;;;;;;;4977353;28;20263;-73
2022/09/27 02:36:23;;;;;;;3.47;0.67;;;;;;;;;;4969769;28;20186;-72
2022/09/27 02:38:48;;;;;;;2.93;0.80;;;;;;;;;;4974197;28;20176;-73
2022/09/27 02:41:15;;;;;;;4.57;0.93;;;;;;;;;;4969271;28;20188;-73
2022/09/27 02:43:42;;;;;;;0.90;0.43;;;;;;;;;;4975210;28;20650;-73
2022/09/27 02:46:07;;;;;;;5.27;0.90;;;;;;;;;;4977294;28;20186;-73
2022/09/27 02:48:46;;;;;;;1.63;0.80;;;;;;;;;;4970861;28;20270;-74
2022/09/27 02:51:20;;;;;;;5.07;1.43;;;;;;;;;;4964271;28;20283;-73
2022/09/27 02:54:04;;;;;;;4.60;1.00;;;;;;;;;;4966551;28;20235;-72
2022/09/27 02:56:38;;;;;;;3.20;0.83;;;;;;;;;;4974406;28;20194;-73
2022/09/27 02:59:24;;;;;;;8.33;1.63;;;;;;;;;;4969675;28;20179;-73
2022/09/27 03:02:04;;;;;;;4.87;1.00;;;;;;;;;;4947846;28;20210;-72
2022/09/27 03:04:38;;;;;;;4.43;0.90;;;;;;;;;;4974172;28;20183;-74
2022/09/27 03:07:04;;;;;;;6.10;0.90;;;;;;;;;;4974982;28;20179;-74
2022/09/27 03:09:39;;;;;;;3.80;1.13;;;;;;;;;;4978051;28;20200;-74
2022/09/27 03:12:04;;;;;;;9.37;1.10;;;;;;;;;;4977415;28;20677;-75
2022/09/27 03:14:30;;;;;;;3.67;0.90;;;;;;;;;;4979590;28;20193;-74
2022/09/27 03:16:55;;;;;;;2.03;1.23;;;;;;;;;;4974963;28;20200;-74
2022/09/27 03:19:20;;;;;;;3.23;0.90;;;;;;;;;;4974675;28;20239;-74
2022/09/27 03:21:45;;;;;;;1.80;0.67;;;;;;;;;;5015988;22;20317;-69
2022/09/27 03:24:10;;;;;;;1.23;0.90;;;;;;;;;;5012032;28;20186;-68
2022/09/27 03:26:36;;;;;;;6.87;0.97;;;;;;;;;;5013066;28;20641;-69
2022/09/27 03:29:01;;;;;;;1.23;0.60;;;;;;;;;;5008187;28;20184;-68
2022/09/27 03:31:26;;;;;;;2.50;0.50;;;;;;;;;;5017650;28;20285;-68
2022/09/27 03:33:51;;;;;;;4.67;0.90;;;;;;;;;;5005135;28;20556;-68
2022/09/27 03:36:16;;;;;;;2.73;0.57;;;;;;;;;;5010119;28;20175;-69
2022/09/27 03:38:42;;;;;;;1.50;0.70;;;;;;;;;;5015339;28;20641;-68
2022/09/27 03:41:07;;;;;;;1.80;0.67;;;;;;;;;;5011459;28;20312;-68
2022/09/27 03:43:32;;;;;;;4.20;1.23;;;;;;;;;;5005090;28;20195;-68
2022/09/27 03:45:57;;;;;;;1.83;0.50;;;;;;;;;;4992385;28;20217;-69
2022/09/27 03:48:23;;;;;;;2.90;0.70;;;;;;;;;;5011516;28;20628;-68
2022/09/27 03:50:49;;;;;;;4.50;0.90;;;;;;;;;;5012622;28;20253;-68
2022/09/27 03:53:15;;;;;;;7.07;1.37;;;;;;;;;;5001545;28;20253;-69
2022/09/27 03:55:40;;;;;;;2.33;0.47;;;;;;;;;;5011091;28;20202;-69
2022/09/27 03:58:05;;;;;;;3.87;0.50;;;;;;;;;;5009052;28;20282;-69
2022/09/27 04:00:31;;;;;;;3.43;1.17;;;;;;;;;;5010599;28;20202;-69
2022/09/27 04:02:57;;;;;;;5.10;0.90;;;;;;;;;;5007452;28;20190;-69
2022/09/27 04:05:25;;;;;;;3.17;1.10;;;;;;;;;;5005796;28;20187;-68
2022/09/27 04:07:51;;;;;;;5.17;0.57;;;;;;;;;;5019277;28;20726;-69
2022/09/27 04:10:16;;;;;;;3.00;0.90;;;;;;;;;;5011547;28;20235;-68
2022/09/27 04:12:42;;;;;;;1.57;0.50;;;;;;;;;;5010304;28;20603;-69
2022/09/27 04:15:08;;;;;;;1.83;0.67;;;;;;;;;;5013938;28;20206;-69
2022/09/27 04:17:33;;;;;;;4.03;0.90;;;;;;;;;;5020455;28;20187;-69
2022/09/27 04:19:59;;;;;;;4.87;1.20;;;;;;;;;;5011022;28;20234;-68
2022/09/27 04:22:24;;;;;;;3.03;0.70;;;;;;;;;;5003764;28;20199;-69
2022/09/27 04:24:49;;;;;;;2.03;0.77;;;;;;;;;;5021324;28;20669;-69
2022/09/27 04:27:15;;;;;;;2.30;0.70;;;;;;;;;;5012365;28;20601;-69
2022/09/27 04:29:44;;;;;;;1.97;0.40;;;;;;;;;;5008008;28;20222;-69
2022/09/27 04:32:09;;;;;;;2.47;0.90;;;;;;;;;;5004052;28;20210;-69
2022/09/27 04:37:18;;;;;;;4.57;0.83;;;;;;;;;;5009248;28;20233;-68
2022/09/27 04:39:43;;;;;;;0.80;0.80;;;;;;;;;;5008519;28;20191;-69
2022/09/27 04:42:09;;;;;;;1.60;0.90;;;;;;;;;;5013145;28;20233;-69
2022/09/27 04:44:34;;;;;;;5.80;1.20;;;;;;;;;;5010170;28;20231;-69
2022/09/27 04:46:59;;;;;;;3.27;0.83;;;;;;;;;;5008158;28;20187;-69
2022/09/27 04:49:24;;;;;;;5.60;1.50;;;;;;;;;;5009619;28;20638;-69
2022/09/27 04:51:49;;;;;;;3.03;1.13;;;;;;;;;;5018799;28;20207;-68
2022/09/27 04:54:15;;;;;;;3.73;0.80;;;;;;;;;;4999187;28;20279;-69
2022/09/27 04:56:40;;;;;;;3.73;0.60;;;;;;;;;;5004658;28;20293;-69
2022/09/27 04:59:05;;;;;;;3.73;0.77;;;;;;;;;;5010511;28;20899;-68
2022/09/27 05:01:30;;;;;;;2.97;0.60;;;;;;;;;;5017228;28;20203;-69
2022/09/27 05:03:56;;;;;;;1.53;0.60;;;;;;;;;;5010933;28;20174;-68
2022/09/27 05:06:21;;;;;;;5.60;0.60;;;;;;;;;;5012505;28;20187;-69
2022/09/27 05:08:46;;;;;;;3.13;0.67;;;;;;;;;;4993357;28;20664;-69
2022/09/27 05:11:11;;;;;;;1.30;0.40;;;;;;;;;;5009926;28;20224;-69
2022/09/27 05:13:36;;;;;;;1.07;0.53;;;;;;;;;;5008660;28;20218;-69
2022/09/27 05:16:02;;;;;;;2.47;0.30;;;;;;;;;;5009923;28;20172;-68
2022/09/27 05:18:28;;;;;;;2.23;0.73;;;;;;;;;;5010672;28;20637;-69
2022/09/27 05:20:55;;;;;;;4.20;0.60;;;;;;;;;;5009914;28;20264;-68
2022/09/27 05:23:20;;;;;;;0.97;0.53;;;;;;;;;;5008868;28;20183;-69
2022/09/27 05:25:46;;;;;;;3.97;0.80;;;;;;;;;;5024336;28;20182;-68
2022/09/27 05:28:11;;;;;;;3.33;0.33;;;;;;;;;;5010142;28;20182;-69
2022/09/27 05:30:36;;;;;;;2.90;1.57;;;;;;;;;;4991219;28;20274;-69
2022/09/27 05:33:01;;;;;;;2.27;0.83;;;;;;;;;;5006887;28;20202;-68
2022/09/27 05:35:27;;;;;;;3.47;0.90;;;;;;;;;;5020759;28;20175;-69
2022/09/27 05:37:59;;;;;;;3.37;0.87;;;;;;;;;;5008314;28;20578;-69
2022/09/27 05:40:24;;;;;;;1.93;0.93;;;;;;;;;;5007671;28;21661;-68
2022/09/27 05:42:52;;;;;;;1.80;0.60;;;;;;;;;;5007311;28;20179;-69
2022/09/27 05:45:18;;;;;;;2.00;0.73;;;;;;;;;;4993903;28;20580;-68
2022/09/27 05:47:43;;;;;;;3.90;1.10;;;;;;;;;;5006894;28;20175;-69
2022/09/27 05:50:08;;;;;;;2.57;0.73;;;;;;;;;;5009551;28;20309;-69
2022/09/27 05:52:33;;;;;;;3.60;0.93;;;;;;;;;;4999683;28;20202;-69
2022/09/27 05:54:59;;;;;;;4.07;0.73;;;;;;;;;;5002952;28;20304;-69
2022/09/27 05:57:24;;;;;;;1.80;0.57;;;;;;;;;;5006842;28;20198;-68
2022/09/27 05:59:49;;;;;;;2.83;1.87;;;;;;;;;;5009856;28;20194;-68
2022/09/27 06:02:14;;;;;;;1.83;0.80;;;;;;;;;;4998161;28;20195;-69
2022/09/27 06:04:39;;;;;;;3.57;1.20;;;;;;;;;;5015959;28;20183;-69
2022/09/27 06:07:05;;;;;;;3.10;0.83;;;;;;;;;;5009586;28;20187;-69
2022/09/27 06:09:30;;;;;;;1.83;0.90;;;;;;;;;;5014561;28;20186;-68
2022/09/27 06:11:55;;;;;;;5.20;1.23;;;;;;;;;;5012323;28;20263;-69
2022/09/27 06:14:21;;;;;;;2.70;1.00;;;;;;;;;;5011109;28;20178;-69
2022/09/27 06:16:46;;;;;;;3.80;1.70;;;;;;;;;;5009978;28;20176;-69
2022/09/27 06:19:12;;;;;;;3.60;1.13;;;;;;;;;;5005664;28;20173;-69
2022/09/27 06:21:37;;;;;;;4.07;0.90;;;;;;;;;;5017129;28;20206;-69
2022/09/27 06:24:02;;;;;;;11.43;2.57;;;;;;;;;;5021655;28;20652;-69
2022/09/27 06:26:28;;;;;;;5.73;1.27;;;;;;;;;;5018865;28;20321;-69
2022/09/27 06:28:53;;;;;;;2.13;0.60;;;;;;;;;;5016564;28;20179;-68
2022/09/27 06:31:20;;;;;;;4.27;1.17;;;;;;;;;;4996127;28;20211;-69
2022/09/27 06:33:45;;;;;;;5.13;1.50;;;;;;;;;;5010113;28;20237;-68
2022/09/27 06:36:10;;;;;;;3.40;0.60;;;;;;;;;;5015473;28;20293;-69
2022/09/27 06:38:36;;;;;;;2.67;0.87;;;;;;;;;;5007984;28;20187;-68
2022/09/27 06:41:02;;;;;;;2.57;0.60;;;;;;;;;;5005329;28;20221;-69
2022/09/27 06:43:28;;;;;;;3.20;0.70;;;;;;;;;;5000618;28;20496;-69
2022/09/27 06:45:53;;;;;;;2.57;1.10;;;;;;;;;;5010707;28;20244;-68
2022/09/27 06:48:19;;;;;;;1.60;0.57;;;;;;;;;;5007983;28;20552;-68
2022/09/27 06:50:45;;;;;;;1.37;0.60;;;;;;;;;;5001987;28;20203;-69
2022/09/27 06:53:11;;;;;;;1.43;0.40;;;;;;;;;;5010310;28;20249;-69
2022/09/27 06:55:37;;;;;;;3.27;0.77;;;;;;;;;;5006205;28;20233;-70
2022/09/27 07:00:51;;;;;;;4.73;1.80;;;;;;;;;;5009461;28;20221;-69
2022/09/27 07:03:16;;;;;;;2.63;0.63;;;;;;;;;;5008405;28;20651;-69
2022/09/27 07:05:42;;;;;;;2.10;0.50;;;;;;;;;;5008366;28;20179;-69
2022/09/27 07:08:10;;;;;;;1.63;0.70;;;;;;;;;;5014590;28;20179;-69
2022/09/27 07:10:36;;;;;;;2.00;0.57;;;;;;;;;;5011518;28;20586;-69
2022/09/27 07:13:06;;;;;;;1.30;0.60;;;;;;;;;;5015154;28;20201;-69
2022/09/27 07:15:35;;;;;;;3.67;0.77;;;;;;;;;;5010760;28;20182;-69
2022/09/27 07:18:00;;;;;;;1.50;0.57;;;;;;;;;;5009043;28;20867;-69
2022/09/27 07:20:25;;;;;;;3.80;0.90;;;;;;;;;;5016605;28;20241;-69
2022/09/27 07:22:51;;;;;;;6.73;2.07;;;;;;;;;;5008492;28;20179;-68
2022/09/27 07:25:16;;;;;;;1.43;0.60;;;;;;;;;;5018888;28;20583;-68
2022/09/27 07:27:41;;;;;;;2.13;0.80;;;;;;;;;;5022639;28;20213;-68
2022/09/27 07:30:07;;;;;;;1.23;0.57;;;;;;;;;;5027102;28;20203;-69
2022/09/27 07:32:35;;;;;;;3.73;1.50;;;;;;;;;;5023324;28;20206;-69
2022/09/27 07:35:00;;;;;;;9.00;1.50;;;;;;;;;;5013129;28;20210;-69
2022/09/27 07:37:25;;;;;;;3.27;1.60;;;;;;;;;;5009031;28;20211;-68
2022/09/27 07:39:51;;;;;;;3.73;1.10;;;;;;;;;;5014971;28;20638;-69
2022/09/27 07:42:16;;;;;;;2.13;0.87;;;;;;;;;;5008788;28;20175;-68
2022/09/27 07:44:41;;;;;;;3.00;0.80;;;;;;;;;;5007933;28;20179;-69
2022/09/27 07:47:07;;;;;;;1.53;0.70;;;;;;;;;;5010989;28;20183;-68
2022/09/27 07:49:32;;;;;;;3.17;0.77;;;;;;;;;;5013230;28;20286;-68
2022/09/27 07:51:57;;;;;;;0.80;0.70;;;;;;;;;;5013801;28;20700;-68
2022/09/27 07:54:23;;;;;;;6.37;1.03;;;;;;;;;;5013981;28;20187;-69
2022/09/27 07:56:48;;;;;;;1.30;0.60;;;;;;;;;;5011334;28;20262;-69
2022/09/27 07:59:13;;;;;;;2.60;0.50;;;;;;;;;;5010659;28;20178;-68
2022/09/27 08:01:38;;;;;;;1.20;0.40;;;;;;;;;;5015396;28;20186;-68
2022/09/27 08:04:04;;;;;;;6.07;0.93;;;;;;;;;;5007507;28;20190;-69
2022/09/27 08:06:29;;;;;;;0.90;0.30;;;;;;;;;;5013607;28;20285;-69
2022/09/27 08:08:54;;;;;;;0.60;0.40;;;;;;;;;;5006322;28;20178;-69
2022/09/27 08:11:20;;;;;;;1.07;0.37;;;;;;;;;;5013615;28;20286;-69
2022/09/27 08:13:48;;;;;;;0.93;0.37;;;;;;;;;;5001957;28;20237;-69
2022/09/27 08:16:13;;;;;;;1.10;0.57;;;;;;;;;;5015634;28;20645;-69
2022/09/27 08:18:39;;;;;;;1.47;0.60;;;;;;;;;;5022632;28;20261;-69
2022/09/27 08:21:04;;;;;;;2.93;0.90;;;;;;;;;;5000306;28;20210;-69
2022/09/27 08:23:29;;;;;;;1.27;0.50;;;;;;;;;;5012268;28;20262;-69
2022/09/27 08:25:56;;;;;;;3.80;0.90;;;;;;;;;;5017950;28;20186;-69
2022/09/27 08:28:21;;;;;;;3.40;0.50;;;;;;;;;;5016842;28;20542;-69
2022/09/27 08:30:47;;;;;;;2.27;0.90;;;;;;;;;;5013406;28;20281;-69
2022/09/27 08:33:12;;;;;;;1.60;0.60;;;;;;;;;;5008631;28;20206;-68
2022/09/27 08:35:38;;;;;;;2.33;1.57;;;;;;;;;;5011684;28;20191;-70
2022/09/27 08:38:04;;;;;;;1.77;0.57;;;;;;;;;;5020078;28;20257;-70
2022/09/27 08:40:42;;;;;;;1.47;0.70;;;;;;;;;;5000825;28;20553;-70
2022/09/27 08:43:18;;;;;;;1.50;0.40;;;;;;;;;;5011892;28;20186;-70
2022/09/27 08:45:58;;;;;;;1.77;0.60;;;;;;;;;;5008751;28;20185;-70
2022/09/27 08:48:25;;;;;;;0.40;0.40;;;;;;;;;;5009372;28;20182;-70
2022/09/27 08:50:50;;;;;;;2.53;0.43;;;;;;;;;;5010235;28;20203;-69
2022/09/27 08:53:20;;;;;;;2.03;0.43;;;;;;;;;;5011158;28;20202;-70
2022/09/27 08:55:56;;;;;;;2.77;0.30;;;;;;;;;;5017060;28;20175;-71
2022/09/27 08:58:35;;;;;;;2.00;0.67;;;;;;;;;;5022177;28;20596;-70
2022/09/27 09:01:03;;;;;;;0.87;0.30;;;;;;;;;;5017637;28;20208;-70
2022/09/27 09:03:29;;;;;;;3.83;0.60;;;;;;;;;;5006066;28;20285;-70
2022/09/27 09:06:00;;;;;;;4.67;0.50;;;;;;;;;;5010890;28;20623;-70
2022/09/27 09:08:30;;;;;;;0.50;0.30;;;;;;;;;;4998735;28;20206;-70
2022/09/27 09:14:34;;;;;;;3.03;0.50;;;;;;;;;;4978975;28;20181;-70
2022/09/27 09:17:07;;;;;;;2.53;0.97;;;;;;;;;;4960492;28;20223;-70
2022/09/27 09:19:43;;;;;;;1.63;0.40;;;;;;;;;;5015525;28;20605;-70
2022/09/27 09:22:33;;;;;;;3.93;0.53;;;;;;;;;;5024871;23;20257;-70
2022/09/27 09:25:16;;;;;;;4.97;0.90;;;;;;;;;;5015929;28;20708;-70
2022/09/27 09:27:44;;;;;;;1.93;0.60;;;;;;;;;;5024259;28;20170;-72
2022/09/27 09:30:23;;;;;;;2.23;0.57;;;;;;;;;;5013941;28;20600;-72
2022/09/27 09:33:07;;;;;;;2.30;0.60;;;;;;;;;;5013413;28;20194;-71
2022/09/27 09:35:38;;;;;;;5.10;0.73;;;;;;;;;;5021936;28;20201;-71
2022/09/27 09:38:05;;;;;;;1.00;0.50;;;;;;;;;;5011448;28;20175;-71
2022/09/27 09:40:36;;;;;;;1.83;0.80;;;;;;;;;;5018238;28;20199;-70
2022/09/27 09:43:09;;;;;;;1.30;0.70;;;;;;;;;;5012488;28;20183;-71
2022/09/27 09:45:43;;;;;;;2.07;0.60;;;;;;;;;;5010948;28;20187;-71
2022/09/27 09:48:24;;;;;;;1.77;0.60;;;;;;;;;;5012170;28;20193;-71
2022/09/27 09:50:52;;;;;;;1.67;0.63;;;;;;;;;;5015530;28;20210;-71
2022/09/27 09:53:19;;;;;;;1.67;0.60;;;;;;;;;;5011855;28;20584;-70
2022/09/27 09:55:50;;;;;;;1.03;0.30;;;;;;;;;;5009594;28;20228;-71
2022/09/27 09:58:29;;;;;;;1.57;0.33;;;;;;;;;;5019860;28;20184;-71
2022/09/27 10:00:59;;;;;;;0.80;0.40;;;;;;;;;;5012718;28;20244;-71
2022/09/27 10:03:25;;;;;;;1.40;0.37;;;;;;;;;;5010098;28;20225;-71
2022/09/27 10:05:50;;;;;;;1.93;0.40;;;;;;;;;;5012195;28;20179;-72
2022/09/27 10:08:20;;;;;;;1.43;0.40;;;;;;;;;;4983428;28;20274;-70
2022/09/27 10:10:46;;;;;;;1.13;0.60;;;;;;;;;;5018993;28;20201;-70
2022/09/27 10:13:19;;;;;;;1.90;0.50;;;;;;;;;;5017293;28;20682;-70
2022/09/27 10:16:01;;;;;;;1.83;0.30;;;;;;;;;;5011463;28;20237;-70
2022/09/27 10:18:27;;;;;;;1.10;0.30;;;;;;;;;;5024359;28;20170;-69
2022/09/27 10:20:55;;;;;;;2.20;0.50;;;;;;;;;;5016096;28;20306;-72
2022/09/27 10:23:21;;;;;;;1.00;0.30;;;;;;;;;;5011442;28;20226;-72
2022/09/27 10:25:51;;;;;;;2.10;0.30;;;;;;;;;;5009763;28;20646;-71
2022/09/27 10:28:32;;;;;;;4.30;0.70;;;;;;;;;;5017381;28;20582;-71
2022/09/27 10:31:01;;;;;;;5.10;0.60;;;;;;;;;;5018869;28;20220;-72
2022/09/27 10:33:28;;;;;;;1.67;0.60;;;;;;;;;;5027282;28;20214;-72
2022/09/27 10:35:54;;;;;;;2.87;0.60;;;;;;;;;;5010785;28;20179;-72
2022/09/27 10:38:25;;;;;;;1.30;0.30;;;;;;;;;;4998985;28;20186;-72
2022/09/27 10:40:54;;;;;;;1.93;0.50;;;;;;;;;;5018985;28;20198;-72
2022/09/27 10:43:24;;;;;;;2.07;0.50;;;;;;;;;;5005809;28;20669;-72
2022/09/27 10:45:50;;;;;;;3.93;0.67;;;;;;;;;;5014043;28;20179;-72
2022/09/27 10:48:22;;;;;;;1.60;0.43;;;;;;;;;;5017575;28;20329;-71
2022/09/27 10:50:55;;;;;;;0.97;0.57;;;;;;;;;;4992931;28;20277;-71
2022/09/27 10:53:21;;;;;;;2.83;0.60;;;;;;;;;;5026122;28;20385;-72
2022/09/27 10:55:47;;;;;;;1.63;0.67;;;;;;;;;;5011547;28;20191;-71
2022/09/27 10:58:22;;;;;;;1.30;0.87;;;;;;;;;;5007594;28;20266;-71
2022/09/27 11:00:55;;;;;;;2.60;0.80;;;;;;;;;;4992149;28;20234;-72
2022/09/27 11:03:20;;;;;;;3.97;0.60;;;;;;;;;;5015249;28;20190;-72
2022/09/27 11:05:46;;;;;;;1.03;0.50;;;;;;;;;;5011147;28;20562;-72
2022/09/27 11:08:17;;;;;;;1.07;0.50;;;;;;;;;;5007298;28;20190;-71
2022/09/27 11:10:42;;;;;;;0.70;0.33;;;;;;;;;;5008568;28;20215;-71
2022/09/27 11:13:13;;;;;;;0.37;0.30;;;;;;;;;;5011315;28;20634;-72
2022/09/27 11:15:41;;;;;;;0.30;0.20;;;;;;;;;;5021671;28;20179;-71
2022/09/27 11:18:13;;;;;;;0.57;0.50;;;;;;;;;;5010457;28;20175;-72
2022/09/27 11:20:45;;;;;;;1.20;0.60;;;;;;;;;;5010845;28;20680;-72
2022/09/27 11:23:18;;;;;;;2.33;0.60;;;;;;;;;;5010723;28;20186;-71
2022/09/27 11:25:49;;;;;;;2.17;0.50;;;;;;;;;;5014393;28;20711;-72
2022/09/27 11:28:24;;;;;;;2.23;0.80;;;;;;;;;;5027711;28;20648;-71
2022/09/27 11:30:54;;;;;;;2.33;0.97;;;;;;;;;;5024487;28;20193;-72
2022/09/27 11:33:30;;;;;;;2.47;0.80;;;;;;;;;;5001883;28;20230;-71
2022/09/27 11:36:12;;;;;;;3.47;1.30;;;;;;;;;;5014428;28;20190;-72
2022/09/27 11:38:52;;;;;;;2.57;0.80;;;;;;;;;;5024429;28;20236;-71
2022/09/27 11:41:29;;;;;;;3.10;0.70;;;;;;;;;;5027576;28;20633;-72
2022/09/27 11:43:58;;;;;;;4.03;0.70;;;;;;;;;;4991241;28;20193;-72
2022/09/27 11:46:29;;;;;;;1.63;0.67;;;;;;;;;;5023572;28;20178;-71
2022/09/27 11:49:20;;;;;;;0.77;0.47;;;;;;;;;;5007308;28;20774;-69
2022/09/27 11:51:52;;;;;;;2.23;0.90;;;;;;;;;;5012702;28;20625;-72
2022/09/27 11:54:29;;;;;;;1.53;0.70;;;;;;;;;;5014338;28;20237;-72
2022/09/27 11:56:59;;;;;;;0.60;0.50;;;;;;;;;;5015014;28;20562;-72
2022/09/27 11:59:24;;;;;;;1.83;0.60;;;;;;;;;;5014336;28;20560;-72
2022/09/27 12:01:54;;;;;;;1.37;0.50;;;;;;;;;;5004970;28;20198;-71
2022/09/27 12:04:39;;;;;;;1.50;0.43;;;;;;;;;;5028115;28;20179;-71
2022/09/27 12:07:10;;;;;;;1.27;0.50;;;;;;;;;;5021024;28;20228;-72
2022/09/27 12:09:39;;;;;;;0.70;0.40;;;;;;;;;;4995109;28;20616;-72
2022/09/27 12:12:24;;;;;;;2.20;0.40;;;;;;;;;;5020084;28;20372;-71
2022/09/27 12:15:01;;;;;;;1.20;0.40;;;;;;;;;;5002260;28;20189;-72
2022/09/27 12:17:30;;;;;;;1.07;0.40;;;;;;;;;;5016766;28;20584;-71
2022/09/27 12:19:57;;;;;;;0.80;0.50;;;;;;;;;;4997514;28;20179;-72
2022/09/27 12:22:39;;;;;;;1.90;0.77;;;;;;;;;;5015472;28;20223;-72
2022/09/27 12:25:04;;;;;;;0.90;0.50;;;;;;;;;;5029914;28;20204;-72
2022/09/27 12:27:29;;;;;;;0.70;0.47;;;;;;;;;;5000844;28;20183;-71
2022/09/27 12:29:55;;;;;;;1.03;0.60;;;;;;;;;;5015950;28;20175;-71
2022/09/27 12:32:26;;;;;;;1.17;0.50;;;;;;;;;;5014335;28;20210;-71
2022/09/27 12:35:03;;;;;;;0.87;0.57;;;;;;;;;;5028323;28;20560;-71
2022/09/27 12:37:38;;;;;;;1.83;0.70;;;;;;;;;;5015059;28;20241;-71
2022/09/27 12:40:09;;;;;;;0.73;0.50;;;;;;;;;;5016345;28;20185;-71
2022/09/27 12:42:40;;;;;;;1.90;0.40;;;;;;;;;;5023180;28;20175;-72
2022/09/27 12:45:09;;;;;;;0.40;0.40;;;;;;;;;;5019269;28;20252;-71
2022/09/27 12:47:37;;;;;;;0.97;0.50;;;;;;;;;;5013759;28;20184;-69
2022/09/27 12:50:14;;;;;;;1.23;0.50;;;;;;;;;;5001192;28;20175;-71
2022/09/27 12:52:44;;;;;;;1.90;0.32;;;;;;;;;;5018148;28;20201;-72
2022/09/27 12:55:22;;;;;;;1.35;0.40;;;;;;;;;;5018007;28;20179;-72
2022/09/27 12:57:51;;;;;;;0.63;0.28;;;;;;;;;;5008084;28;20167;-71
2022/09/27 13:00:26;;;;;;;0.88;0.35;;;;;;;;;;5020837;28;20186;-69
2022/09/27 13:03:03;;;;;;;0.50;0.20;;;;;;;;;;5017450;28;20188;-72
2022/09/27 13:06:04;;;;;;;1.48;0.30;;;;;;;;;;5013446;28;20245;-70
2022/09/27 13:08:40;;;;;;;0.47;0.32;;;;;;;;;;4936290;29;20331;-70
2022/09/27 13:11:11;;;;;;;0.40;0.20;;;;;;;;;;5006665;28;20301;-71
2022/09/27 13:13:38;;;;;;;2.45;0.38;;;;;;;;;;5017190;28;20203;-71
2022/09/27 13:16:04;;;;;;;0.40;0.20;;;;;;;;;;5012545;28;20205;-70
2022/09/27 13:18:31;;;;;;;0.82;0.40;;;;;;;;;;5023184;28;20182;-70
2022/09/27 13:20:56;;;;;;;0.35;0.20;;;;;;;;;;5019116;28;20280;-71
2022/09/27 13:23:22;;;;;;;0.65;0.30;;;;;;;;;;5001969;28;20282;-70
2022/09/27 13:25:58;;;;;;;0.30;0.30;;;;;;;;;;5015800;28;20182;-70
2022/09/27 13:28:34;;;;;;;1.27;0.30;;;;;;;;;;5022208;28;20175;-71
2022/09/27 13:31:02;;;;;;;1.58;0.20;;;;;;;;;;5021854;28;20356;-70
2022/09/27 13:33:27;;;;;;;0.88;0.35;;;;;;;;;;5013670;28;20206;-70
2022/09/27 13:36:11;;;;;;;1.52;0.60;;;;;;;;;;5021428;28;20209;-70
2022/09/27 13:38:36;;;;;;;0.77;0.30;;;;;;;;;;5020863;28;20174;-71
2022/09/27 13:41:13;;;;;;;0.55;0.20;;;;;;;;;;5017502;28;20602;-70
2022/09/27 13:43:46;;;;;;;2.58;0.20;;;;;;;;;;5011486;28;20179;-70
2022/09/27 13:46:19;;;;;;;1.63;0.30;;;;;;;;;;5025314;28;20267;-70
2022/09/27 13:48:46;;;;;;;0.90;0.20;;;;;;;;;;5016136;28;20175;-70
2022/09/27 13:51:27;;;;;;;4.30;0.98;;;;;;;;;;5000656;28;20209;-70
2022/09/27 13:53:57;;;;;;;0.63;0.40;;;;;;;;;;5005020;28;20205;-70
2022/09/27 13:56:35;;;;;;;0.52;0.45;;;;;;;;;;5026110;28;20572;-69
2022/09/27 13:59:01;;;;;;;1.38;0.40;;;;;;;;;;5008710;28;20186;-70
2022/09/27 14:01:35;;;;;;;0.93;0.40;;;;;;;;;;5011438;28;20202;-70
2022/09/27 14:04:09;;;;;;;1.13;0.47;;;;;;;;;;5023234;28;20698;-70
2022/09/27 14:06:36;;;;;;;0.55;0.40;;;;;;;;;;5022818;28;20229;-69
2022/09/27 14:09:04;;;;;;;2.05;0.80;;;;;;;;;;5005471;28;20779;-69
2022/09/27 14:11:32;;;;;;;1.30;0.63;;;;;;;;;;5007361;28;20574;-70
2022/09/27 14:13:58;;;;;;;0.65;0.40;;;;;;;;;;5019817;28;20198;-70
2022/09/27 14:16:24;;;;;;;4.35;0.82;;;;;;;;;;5013982;28;20185;-69
2022/09/27 14:18:52;;;;;;;2.00;0.90;;;;;;;;;;5016037;28;20197;-70
2022/09/27 14:21:33;;;;;;;2.05;0.95;;;;;;;;;;5022506;28;20699;-69
2022/09/27 14:24:37;;;;;;;3.10;1.00;;;;;;;;;;5002920;28;20226;-70
2022/09/27 14:27:17;;;;;;;1.13;0.63;;;;;;;;;;4926717;29;20182;-70
2022/09/27 14:29:56;;;;;;;3.00;0.85;;;;;;;;;;4922874;29;20578;-70
2022/09/27 14:32:23;;;;;;;1.88;1.00;;;;;;;;;;4983368;28;20226;-70
2022/09/27 14:35:03;;;;;;;3.25;0.57;;;;;;;;;;5008127;28;20549;-70
2022/09/27 14:37:29;;;;;;;3.72;0.80;;;;;;;;;;5006232;28;20175;-70
2022/09/27 14:40:00;;;;;;;2.85;0.68;;;;;;;;;;5016323;28;20178;-70
2022/09/27 14:42:27;;;;;;;0.65;0.47;;;;;;;;;;5021637;28;20249;-70
2022/09/27 14:45:01;;;;;;;1.10;0.68;;;;;;;;;;5021742;28;20174;-70
2022/09/27 14:47:27;;;;;;;4.57;0.73;;;;;;;;;;5009895;28;20183;-70
2022/09/27 14:50:10;;;;;;;2.10;0.50;;;;;;;;;;5020432;28;20240;-69
2022/09/27 14:52:38;;;;;;;2.63;0.80;;;;;;;;;;4998940;28;20202;-69
2022/09/27 14:55:14;;;;;;;2.65;0.50;;;;;;;;;;5017306;28;20236;-70
2022/09/27 14:57:44;;;;;;;2.08;0.60;;;;;;;;;;5010899;28;20182;-70
2022/09/27 15:00:17;;;;;;;3.55;1.50;;;;;;;;;;5013094;28;20578;-70
2022/09/27 15:02:43;;;;;;;2.60;0.52;;;;;;;;;;5021194;28;20178;-69
2022/09/27 15:05:28;;;;;;;2.08;0.50;;;;;;;;;;5020053;28;20186;-69